Share

Megargel, AL (36457)

KALFRISC2 Elev 79 ft | 31.58 °N, 87.49 °W | Change Station
Active Advisory: Flood Warning Active Notice: Record Report

Current weather conditions updated 2 minutes ago

Overcast
Overcast
64.6 °F
Feels Like 64.6 °F
N
4.0
Wind Variable Wind from ENE
Gusts 4.0 mph
Sunrise 6:19 AM
Sunset 7:19 PM
Moon Waning Gibbous

Tomorrow is forecast to be Cooler than today. Periods of heavy rain.

Pressure 30.21 in
Visibility 10.0 miles
Clouds Overcast 5000 ft
Dew Point 57 °F
Humidity 76%
Rainfall 0.00 in
Snow Depth Not available.
UV 0 out of 16
Pollen 8.50 out of 12
Air Quality Not available.
Flu Activity Sporadic
METAR KGZH 180153Z AUTO 06007KT 10SM OVC050 18/12 A3021 RMK AO2 SLP229 T01830122

More Conditions Fewer Conditions

Pressure 30.21 in
Visibility 10.0 miles
Clouds Overcast 5000 ft
Dew Point 57 °F
Humidity 76%
Rainfall 0.00 in
Snow Depth Not available.
UV 0 out of 16
Pollen 8.50 out of 12
Air Quality Not available.
Flu Activity Sporadic
METAR KGZH 180153Z AUTO 06007KT 10SM OVC050 18/12 A3021 RMK AO2 SLP229 T01830122

More Conditions Fewer Conditions

10-Day Forecast

Almanac

Astronomy

Apr. 17, 2014 Rise Set
Actual Time 6:19 AM CDT 7:19 PM CDT
Civil Twilight 5:54 AM CDT 7:44 PM CDT
Nautical Twilight 5:24 AM CDT 8:14 PM CDT
Astronomical Twilight 4:54 AM CDT 8:44 PM CDT
Moon 9:57 PM CDT (4/17) 7:57 AM CDT (4/17)
Length of Visible Light 13h 50m
Length of Day
13h 00m
Tomorrow will be 1m 48s longer.
Waning Gibbous, 91% of the Moon is Illuminated
Today
Waning Gibbous
Apr 22
Last Quarter
Apr 29
New
May 6
First Quarter
May 14
Full

Today's Extremes

State Highs State Lows

Community

  • Morning Light
    Morning Light
  • New Day
    New Day
  • Lake Michigan Sunrise
    Lake Michigan Sunrise
  • sunset from izmir, narlıdere
    sunset from izmir, narlıdere
  • oregon cherry
    oregon cherry

WunderPhotos

Upload Photos

1,702,214 photos uploaded!

WunderBlogs® & News

Nearby

Snow Depth

Station Depth Elevation
No new snow has been reported.

Coastal Water Temperatures

Place Temperature
No Stations Reporting

Earthquake Activity

City Distance Mag. Time & Date
No recent earthquake activity has been reported nearby.
Minimum magnitude displayed is 2.5.

Nearby Weather Stations

Station Location Temp. Dew Point Humidity Wind Precip. Elev Updated Type
Perdue Hill, AL 64.6 °F 57 °F 76% ENE  at  4.0 mph 0.00 in / hr 79 ft 9:00 PM CDT Normal
B.E.C., Atmore, AL 66.1 °F 57 °F 73% ENE  at  6.0 mph 0.00 in / hr 256 ft 8:54 PM CDT Normal

Show More Stations Show Fewer Stations

What do you think?

We're not finished. Please let us know what you like, what you don't like, and what you are still missing.